Time;durP1;ratioP1;P1;durP2;ratioP2;P2;SDS_P1;SDS_P2;PMS_P1;PMS_P2;Temp;Humidity;BMP_temperature;BMP_pressure;BME280_temperature;BME280_humidity;BME280_pressure;Samples;Min_cycle;Max_cycle;Signal;HPM_P1;HPM_P2
2023/08/29 00:02:41;;;;;;;1.42;0.70;;;;;;;17.58;60.68;99730.06;10288693;28;20054;-70
2023/08/29 00:07:42;;;;;;;1.65;0.65;;;;;;;17.65;60.40;99717.16;10292918;28;20059;-77
2023/08/29 00:12:46;;;;;;;0.75;0.63;;;;;;;17.62;60.56;99709.47;10287223;28;20046;-73
2023/08/29 00:17:48;;;;;;;0.93;0.70;;;;;;;17.58;60.56;99727.34;10290595;28;20331;-72
2023/08/29 00:22:49;;;;;;;4.90;0.90;;;;;;;17.58;60.39;99702.88;10286605;28;20054;-73
2023/08/29 00:27:50;;;;;;;1.10;0.80;;;;;;;17.62;60.42;99714.91;10282913;28;20062;-72
2023/08/29 00:32:52;;;;;;;1.27;0.52;;;;;;;17.61;60.64;99724.97;10287400;28;20057;-74
2023/08/29 00:37:53;;;;;;;5.07;0.93;;;;;;;17.64;60.32;99735.34;10282703;28;20051;-75
2023/08/29 00:42:55;;;;;;;1.20;0.50;;;;;;;17.66;60.58;99739.75;10285113;28;20272;-75
2023/08/29 00:47:56;;;;;;;3.03;0.70;;;;;;;17.63;60.44;99743.75;10301252;28;20266;-74
2023/08/29 00:53:01;;;;;;;1.88;0.50;;;;;;;17.66;60.42;99770.47;10292983;28;20042;-72
2023/08/29 00:58:03;;;;;;;1.58;0.77;;;;;;;17.77;60.08;99788.66;10284741;28;20082;-73
2023/08/29 01:03:05;;;;;;;1.75;0.50;;;;;;;17.84;60.18;99794.00;10287870;28;20053;-72
2023/08/29 01:08:07;;;;;;;0.70;0.60;;;;;;;17.88;60.16;99797.91;10286378;28;20231;-73
2023/08/29 01:13:18;;;;;;;0.65;0.50;;;;;;;17.91;60.44;99792.00;10285214;28;20073;-72
2023/08/29 01:18:21;;;;;;;1.08;0.52;;;;;;;17.64;61.01;99789.72;10284629;28;20409;-71
2023/08/29 01:23:42;;;;;;;2.55;0.80;;;;;;;17.57;61.15;99794.44;10284146;28;20073;-74
2023/08/29 01:28:46;;;;;;;0.47;0.40;;;;;;;17.68;61.11;99800.94;10286606;28;20113;-73
2023/08/29 01:33:48;;;;;;;0.80;0.60;;;;;;;17.79;60.52;99810.16;10288672;28;20051;-76
2023/08/29 01:38:50;;;;;;;1.08;0.60;;;;;;;17.83;60.64;99809.50;10284033;28;20070;-75
2023/08/29 01:43:51;;;;;;;1.00;0.60;;;;;;;17.81;60.75;99791.72;10284672;28;20066;-72
2023/08/29 01:48:53;;;;;;;1.73;0.50;;;;;;;17.70;61.17;99774.34;10280995;28;20059;-72
2023/08/29 01:53:54;;;;;;;2.92;0.60;;;;;;;17.72;61.10;99772.22;10285200;28;20047;-74
2023/08/29 01:58:56;;;;;;;2.95;0.60;;;;;;;17.71;60.87;99751.53;10291762;28;20043;-76
2023/08/29 02:03:58;;;;;;;1.50;0.60;;;;;;;17.81;60.80;99749.06;10285076;28;20055;-71
2023/08/29 02:08:59;;;;;;;1.85;0.40;;;;;;;17.88;60.64;99759.00;10296210;28;20196;-74
2023/08/29 02:14:01;;;;;;;2.15;0.50;;;;;;;17.91;60.58;99755.78;10280345;28;21427;-72
2023/08/29 02:19:02;;;;;;;6.10;0.50;;;;;;;17.93;60.45;99748.22;10285600;28;20304;-75
2023/08/29 02:24:04;;;;;;;0.40;0.40;;;;;;;17.95;60.47;99741.50;10289862;28;20071;-76
2023/08/29 02:29:06;;;;;;;2.05;0.50;;;;;;;18.01;60.28;99740.53;10290260;28;20051;-74
2023/08/29 02:34:08;;;;;;;1.27;0.43;;;;;;;18.06;60.34;99728.94;10282148;28;20053;-76
2023/08/29 02:39:10;;;;;;;0.95;0.50;;;;;;;18.09;60.21;99709.41;10279263;28;20158;-75
2023/08/29 02:44:12;;;;;;;0.95;0.50;;;;;;;18.10;60.21;99710.25;10286611;28;20039;-73
2023/08/29 02:49:13;;;;;;;4.30;0.60;;;;;;;18.11;60.11;99704.56;10285809;28;20059;-72
2023/08/29 02:54:14;;;;;;;0.60;0.60;;;;;;;18.09;60.17;99692.25;10285558;28;20080;-71
2023/08/29 02:59:16;;;;;;;2.10;0.52;;;;;;;18.09;60.10;99689.53;10298650;28;20062;-73
2023/08/29 03:04:17;;;;;;;1.27;0.40;;;;;;;18.14;59.96;99692.38;10291786;28;20081;-74
2023/08/29 03:09:18;;;;;;;1.40;0.40;;;;;;;18.11;60.01;99684.66;10283184;28;20066;-72
2023/08/29 03:14:20;;;;;;;1.35;0.85;;;;;;;18.05;60.10;99686.50;10283204;28;20077;-74
2023/08/29 03:19:21;;;;;;;0.68;0.50;;;;;;;18.02;60.16;99679.63;10294719;28;20118;-71
2023/08/29 03:24:23;;;;;;;1.58;0.60;;;;;;;18.03;60.13;99672.31;10278168;28;20055;-73
2023/08/29 03:29:24;;;;;;;2.70;0.40;;;;;;;18.07;59.92;99683.50;10283331;28;20146;-75
2023/08/29 03:34:25;;;;;;;0.95;0.35;;;;;;;18.11;59.85;99684.66;10283351;28;20047;-75
2023/08/29 03:39:27;;;;;;;0.55;0.40;;;;;;;18.11;59.92;99673.78;10281949;28;20042;-73
2023/08/29 03:44:28;;;;;;;2.25;0.40;;;;;;;18.20;59.86;99684.03;10303709;28;20074;-73
2023/08/29 03:49:30;;;;;;;0.57;0.40;;;;;;;18.25;59.77;99686.06;10284619;28;20054;-74
2023/08/29 03:54:31;;;;;;;0.50;0.47;;;;;;;18.32;59.64;99703.03;10289418;28;20291;-72
2023/08/29 03:59:33;;;;;;;0.70;0.45;;;;;;;18.33;59.80;99693.81;10288971;28;20090;-76
2023/08/29 04:04:35;;;;;;;3.42;0.60;;;;;;;18.30;60.05;99694.31;10286486;28;20138;-71
2023/08/29 04:09:37;;;;;;;3.53;0.40;;;;;;;18.27;59.93;99688.53;10289877;28;20047;-73
2023/08/29 04:14:39;;;;;;;2.55;0.50;;;;;;;18.11;60.38;99695.56;10291423;28;20118;-72
2023/08/29 04:19:40;;;;;;;1.15;0.47;;;;;;;18.17;60.43;99700.88;10288196;28;20123;-75
2023/08/29 04:24:41;;;;;;;3.05;0.57;;;;;;;18.18;60.38;99698.97;10287325;28;20053;-74
2023/08/29 04:29:43;;;;;;;0.93;0.50;;;;;;;18.15;60.40;99699.47;10286996;28;20051;-73
2023/08/29 04:34:44;;;;;;;0.65;0.43;;;;;;;18.10;60.71;99696.63;10295072;28;20050;-71
2023/08/29 04:39:46;;;;;;;1.60;0.90;;;;;;;18.08;60.92;99694.16;10286541;28;20058;-70
2023/08/29 04:44:47;;;;;;;1.23;0.75;;;;;;;18.07;60.98;99694.38;10285872;28;20062;-70
2023/08/29 04:49:48;;;;;;;0.80;0.52;;;;;;;18.04;61.08;99688.38;10287310;28;20355;-69
2023/08/29 04:54:50;;;;;;;3.22;0.60;;;;;;;18.10;61.03;99691.19;10285896;28;20070;-70
2023/08/29 04:59:51;;;;;;;2.55;0.85;;;;;;;18.09;61.18;99684.94;10287365;28;20122;-69
2023/08/29 05:04:52;;;;;;;2.83;0.60;;;;;;;18.07;61.01;99689.78;10284932;28;20288;-70
2023/08/29 05:09:55;;;;;;;2.33;0.90;;;;;;;18.11;60.96;99690.13;10281895;28;20050;-70
2023/08/29 05:14:57;;;;;;;3.22;1.67;;;;;;;18.05;61.14;99689.22;10288670;28;20110;-72
2023/08/29 05:19:58;;;;;;;2.15;0.60;;;;;;;18.08;61.02;99683.28;10289853;28;20072;-72
2023/08/29 05:25:00;;;;;;;0.60;0.60;;;;;;;18.15;60.82;99688.59;10285291;28;20047;-71
2023/08/29 05:30:02;;;;;;;0.60;0.60;;;;;;;18.12;61.07;99686.34;10286429;28;20117;-70
2023/08/29 05:35:05;;;;;;;3.28;0.70;;;;;;;18.19;61.04;99684.31;10283328;28;20676;-70
2023/08/29 05:40:08;;;;;;;0.85;0.50;;;;;;;18.26;60.92;99684.16;10279348;28;20507;-70
2023/08/29 05:45:10;;;;;;;4.82;0.60;;;;;;;18.26;60.89;99678.72;10285777;28;20059;-69
2023/08/29 05:50:11;;;;;;;2.67;0.52;;;;;;;18.34;60.65;99681.84;10281978;28;20122;-70
2023/08/29 05:55:13;;;;;;;1.45;0.70;;;;;;;18.35;60.65;99683.53;10294028;28;20046;-69
2023/08/29 06:00:15;;;;;;;2.45;1.15;;;;;;;18.44;60.58;99683.94;10282372;28;20047;-69
2023/08/29 06:05:16;;;;;;;1.40;0.70;;;;;;;18.49;60.49;99680.50;10281259;28;20039;-70
2023/08/29 06:10:18;;;;;;;1.30;0.50;;;;;;;18.39;60.67;99679.25;10287923;28;20114;-66
2023/08/29 06:15:19;;;;;;;2.35;0.50;;;;;;;18.57;60.31;99677.38;10282584;28;20135;-69
2023/08/29 06:20:21;;;;;;;1.23;0.50;;;;;;;18.68;60.04;99676.50;10294101;28;20117;-66
2023/08/29 06:25:24;;;;;;;2.33;0.70;;;;;;;18.81;59.63;99675.38;10280245;28;20043;-66
2023/08/29 06:30:26;;;;;;;1.27;0.40;;;;;;;18.92;59.61;99681.81;10286067;28;20150;-66
2023/08/29 06:35:27;;;;;;;3.60;0.63;;;;;;;19.05;59.29;99686.91;10279817;28;20067;-67
2023/08/29 06:40:29;;;;;;;1.58;0.60;;;;;;;19.07;59.14;99692.94;10278706;28;20106;-66
2023/08/29 06:45:30;;;;;;;0.73;0.40;;;;;;;19.14;59.16;99690.06;10282335;28;20107;-67
2023/08/29 06:50:32;;;;;;;1.10;0.63;;;;;;;19.19;58.89;99684.69;10281379;28;20070;-67
2023/08/29 06:55:34;;;;;;;3.08;0.50;;;;;;;19.05;58.81;99695.09;10286507;28;20059;-68
2023/08/29 07:00:36;;;;;;;1.02;0.40;;;;;;;19.02;58.94;99698.34;10284529;28;20053;-67
2023/08/29 07:05:37;;;;;;;2.30;0.52;;;;;;;19.08;59.00;99696.50;10286009;28;20039;-66
2023/08/29 07:10:38;;;;;;;1.33;0.60;;;;;;;19.01;58.66;99699.38;10284775;28;20101;-68
2023/08/29 07:15:40;;;;;;;3.20;0.50;;;;;;;19.11;58.69;99704.19;10285211;28;20069;-69
2023/08/29 07:20:42;;;;;;;2.75;0.40;;;;;;;19.12;58.65;99705.84;10291617;28;20070;-67
2023/08/29 07:25:45;;;;;;;2.47;0.52;;;;;;;19.41;58.21;99698.34;10287908;28;20110;-68
2023/08/29 07:30:48;;;;;;;1.20;0.40;;;;;;;19.51;58.04;99692.22;10289673;28;20046;-66
2023/08/29 07:35:49;;;;;;;1.45;0.65;;;;;;;19.62;58.05;99708.47;10286317;28;20062;-65
2023/08/29 07:40:51;;;;;;;0.77;0.50;;;;;;;19.76;57.53;99719.06;10289609;28;20078;-65
2023/08/29 07:45:53;;;;;;;0.50;0.40;;;;;;;19.87;57.62;99718.13;10285598;28;20365;-66
2023/08/29 07:50:54;;;;;;;4.05;0.40;;;;;;;19.85;57.44;99728.47;10288394;28;20151;-66
2023/08/29 07:55:56;;;;;;;1.05;0.40;;;;;;;20.07;56.94;99733.09;10289560;28;20081;-67
2023/08/29 08:00:57;;;;;;;3.65;0.60;;;;;;;20.38;56.37;99737.84;10287173;28;20038;-67
2023/08/29 08:05:59;;;;;;;0.65;0.40;;;;;;;20.60;55.77;99731.56;10291495;28;20073;-67
2023/08/29 08:11:00;;;;;;;3.72;0.50;;;;;;;20.91;55.42;99742.75;10286787;28;20047;-69
2023/08/29 08:16:02;;;;;;;1.13;0.40;;;;;;;21.13;54.92;99740.78;10285439;28;20070;-68
2023/08/29 08:21:07;;;;;;;2.17;0.20;;;;;;;21.51;54.45;99741.63;10291023;28;20074;-67
2023/08/29 08:26:08;;;;;;;3.92;0.40;;;;;;;21.66;54.06;99753.75;10283967;28;20110;-68
2023/08/29 08:31:09;;;;;;;0.43;0.20;;;;;;;21.87;53.16;99746.50;10287745;28;20058;-70
2023/08/29 08:36:11;;;;;;;0.30;0.20;;;;;;;21.95;52.70;99751.47;10279505;28;20071;-71
2023/08/29 08:41:14;;;;;;;1.90;0.40;;;;;;;22.16;52.13;99749.66;10282499;28;20058;-69
2023/08/29 08:46:16;;;;;;;0.98;0.25;;;;;;;22.27;51.24;99748.59;10288357;28;20118;-70
2023/08/29 08:51:22;;;;;;;1.35;0.20;;;;;;;22.29;51.57;99753.81;10307760;28;20114;-69
2023/08/29 08:56:24;;;;;;;1.58;0.20;;;;;;;22.28;51.31;99754.94;10285777;28;20339;-70
2023/08/29 09:01:26;;;;;;;0.93;0.17;;;;;;;22.28;50.98;99771.38;10282684;28;20062;-68
2023/08/29 09:06:29;;;;;;;1.83;0.28;;;;;;;22.50;50.80;99766.50;10291572;28;20363;-69
2023/08/29 09:11:30;;;;;;;0.88;0.20;;;;;;;22.62;50.12;99766.25;10285919;28;20065;-67
2023/08/29 09:16:35;;;;;;;1.42;0.30;;;;;;;22.75;49.63;99751.22;10283320;28;20042;-68
2023/08/29 09:21:36;;;;;;;0.43;0.22;;;;;;;23.03;49.29;99763.63;10287058;28;20055;-69
2023/08/29 09:26:41;;;;;;;0.30;0.20;;;;;;;23.30;49.50;99755.13;10283658;28;20252;-68
2023/08/29 09:31:43;;;;;;;1.23;0.20;;;;;;;23.58;48.91;99758.38;10282471;28;20111;-71
2023/08/29 09:36:45;;;;;;;0.63;0.20;;;;;;;23.89;48.39;99766.56;10282712;28;20047;-71
2023/08/29 09:42:05;;;;;;;0.90;0.20;;;;;;;23.86;48.30;99764.41;10276776;28;20055;-73
2023/08/29 09:47:09;;;;;;;1.15;0.20;;;;;;;23.68;48.23;99761.09;10286980;28;20331;-76
2023/08/29 09:52:10;;;;;;;1.02;0.28;;;;;;;23.47;47.90;99759.50;10292824;28;20051;-74
2023/08/29 09:57:14;;;;;;;3.10;0.30;;;;;;;23.16;48.74;99754.00;10288634;28;20057;-71
2023/08/29 10:02:18;;;;;;;2.20;0.30;;;;;;;23.09;49.03;99745.25;10284361;28;20430;-72
2023/08/29 10:07:25;;;;;;;3.65;0.30;;;;;;;22.95;49.33;99759.47;10298099;28;20058;-71
2023/08/29 10:12:27;;;;;;;3.55;1.00;;;;;;;22.81;49.64;99743.81;10282767;28;20355;-72
2023/08/29 10:17:31;;;;;;;2.30;0.30;;;;;;;22.93;48.96;99744.38;10285958;28;20105;-74
2023/08/29 10:22:33;;;;;;;0.95;0.30;;;;;;;22.94;48.84;99740.53;10284073;28;20310;-74
2023/08/29 10:27:34;;;;;;;1.13;0.50;;;;;;;23.09;48.28;99743.31;10282539;28;20290;-72
2023/08/29 10:32:37;;;;;;;0.52;0.28;;;;;;;23.15;48.15;99742.22;10277964;28;20105;-72
2023/08/29 10:37:38;;;;;;;1.98;0.38;;;;;;;23.08;48.20;99744.41;10283220;28;20059;-71
2023/08/29 10:43:00;;;;;;;0.90;0.20;;;;;;;23.37;47.59;99732.88;10283114;28;20421;-72
2023/08/29 10:48:02;;;;;;;1.13;0.25;;;;;;;23.42;47.31;99740.28;10301028;28;20047;-68
2023/08/29 10:53:04;;;;;;;1.10;0.20;;;;;;;23.46;46.72;99736.72;10279768;28;20055;-71
2023/08/29 10:58:51;;;;;;;2.30;0.20;;;;;;;23.26;46.68;99732.09;10299959;28;20050;-72
2023/08/29 11:03:53;;;;;;;1.13;0.20;;;;;;;23.54;46.11;99729.84;10277148;28;20053;-70
2023/08/29 11:09:21;;;;;;;0.45;0.20;;;;;;;23.56;45.61;99735.88;10280619;28;20371;-70
2023/08/29 11:14:23;;;;;;;0.20;0.10;;;;;;;23.52;45.54;99727.38;10277658;28;20051;-71
2023/08/29 11:19:24;;;;;;;1.58;0.20;;;;;;;23.29;45.40;99722.47;10285406;28;20061;-71
2023/08/29 11:24:26;;;;;;;0.60;0.20;;;;;;;23.42;45.68;99719.19;10280815;28;20122;-73
2023/08/29 11:29:35;;;;;;;1.65;0.20;;;;;;;23.52;45.07;99719.16;10279135;28;20118;-72
2023/08/29 11:34:36;;;;;;;0.50;0.20;;;;;;;23.40;45.01;99721.38;10280656;28;20046;-70
2023/08/29 11:39:38;;;;;;;1.27;0.15;;;;;;;23.42;45.16;99712.84;10278870;28;20066;-72
2023/08/29 11:44:40;;;;;;;0.20;0.20;;;;;;;23.32;45.73;99719.16;10284669;28;20047;-71
2023/08/29 11:50:04;;;;;;;0.88;0.20;;;;;;;23.15;46.03;99711.25;10280272;28;20074;-71
2023/08/29 11:55:08;;;;;;;0.65;0.20;;;;;;;23.07;45.81;99709.88;10276353;28;20050;-71
2023/08/29 12:00:13;;;;;;;0.80;0.20;;;;;;;22.85;46.64;99722.97;10283207;28;20051;-72
2023/08/29 12:05:14;;;;;;;0.98;0.20;;;;;;;22.74;46.60;99722.97;10283207;28;20398;-70
2023/08/29 12:10:16;;;;;;;0.22;0.10;;;;;;;22.73;46.39;99724.09;10290781;28;20068;-72
2023/08/29 12:15:18;;;;;;;0.45;0.20;;;;;;;22.37;47.10;99721.28;10286216;28;20486;-73
2023/08/29 12:20:39;;;;;;;2.25;0.10;;;;;;;22.60;47.16;99712.84;10283901;28;20078;-70
2023/08/29 12:25:41;;;;;;;0.70;0.20;;;;;;;23.01;46.12;99721.91;10298820;28;20039;-71
2023/08/29 12:30:42;;;;;;;5.05;0.20;;;;;;;23.03;46.39;99713.44;10302797;28;20355;-72
2023/08/29 12:35:43;;;;;;;0.10;0.10;;;;;;;23.05;46.32;99711.25;10285022;28;20058;-70
2023/08/29 12:40:45;;;;;;;0.28;0.10;;;;;;;23.05;46.07;99703.03;10287375;28;20050;-70
2023/08/29 12:45:46;;;;;;;2.65;0.20;;;;;;;22.63;46.66;99699.41;10285708;28;20081;-72
2023/08/29 12:51:00;;;;;;;0.28;0.10;;;;;;;22.58;46.48;99699.41;10284102;28;20069;-70
2023/08/29 12:56:02;;;;;;;0.82;0.20;;;;;;;22.46;46.71;99696.91;10286156;28;20059;-68
2023/08/29 13:01:03;;;;;;;2.45;0.20;;;;;;;22.43;46.69;99683.75;10284642;28;20607;-71
2023/08/29 13:06:05;;;;;;;1.20;0.20;;;;;;;22.55;46.66;99683.50;10287974;28;20077;-68
2023/08/29 13:11:07;;;;;;;0.70;0.10;;;;;;;23.07;45.53;99682.47;10302361;28;20089;-70
2023/08/29 13:16:08;;;;;;;2.78;0.28;;;;;;;23.26;45.46;99687.38;10287847;28;20054;-70
2023/08/29 13:21:11;;;;;;;1.25;0.15;;;;;;;23.62;44.56;99690.03;10277318;28;20057;-69
2023/08/29 13:26:12;;;;;;;1.33;0.10;;;;;;;23.26;44.87;99684.63;10281805;28;20110;-68
2023/08/29 13:31:15;;;;;;;0.75;0.20;;;;;;;23.23;44.84;99682.44;10289293;28;20043;-68
2023/08/29 13:36:16;;;;;;;1.00;0.10;;;;;;;23.46;44.29;99687.34;10274800;28;20404;-68
2023/08/29 13:41:18;;;;;;;0.20;0.10;;;;;;;23.24;44.96;99689.56;10281696;28;20058;-68
2023/08/29 13:46:19;;;;;;;2.25;0.15;;;;;;;24.17;43.90;99679.13;10281590;28;20047;-69
2023/08/29 13:51:20;;;;;;;2.70;0.17;;;;;;;24.01;43.74;99676.47;10282891;28;20054;-67
2023/08/29 13:56:22;;;;;;;0.38;0.10;;;;;;;24.69;42.60;99675.00;10286003;28;20110;-69
2023/08/29 14:01:23;;;;;;;1.20;0.25;;;;;;;24.84;42.23;99674.03;10293724;28;20046;-69
2023/08/29 14:06:25;;;;;;;1.15;0.20;;;;;;;24.89;41.83;99668.50;10279038;28;20053;-69
2023/08/29 14:11:26;;;;;;;1.65;0.10;;;;;;;25.33;41.08;99664.81;10283503;28;20042;-69
2023/08/29 14:16:28;;;;;;;0.50;0.10;;;;;;;24.97;41.08;99665.13;10283456;28;20106;-70
2023/08/29 14:21:30;;;;;;;1.58;0.20;;;;;;;24.61;41.54;99664.63;10278539;28;20388;-69
2023/08/29 14:26:31;;;;;;;1.80;0.30;;;;;;;24.12;41.92;99675.31;10279996;28;20070;-70
2023/08/29 14:31:33;;;;;;;0.55;0.20;;;;;;;23.99;42.46;99675.91;10282882;28;20047;-69
2023/08/29 14:36:34;;;;;;;1.00;0.20;;;;;;;23.60;43.74;99673.03;10278248;28;20061;-70
2023/08/29 14:41:36;;;;;;;1.55;0.22;;;;;;;23.22;44.55;99683.53;10279230;28;20544;-69
2023/08/29 14:46:37;;;;;;;1.70;0.20;;;;;;;22.97;45.90;99677.78;10284457;28;20309;-68
2023/08/29 14:51:39;;;;;;;1.20;0.28;;;;;;;22.92;46.38;99677.75;10281704;28;20066;-69
2023/08/29 14:56:41;;;;;;;1.38;0.30;;;;;;;22.87;46.48;99668.75;10281635;28;20114;-69
2023/08/29 15:01:43;;;;;;;2.40;0.20;;;;;;;22.63;47.00;99677.50;10285788;28;20122;-70
2023/08/29 15:06:44;;;;;;;1.75;0.10;;;;;;;22.86;46.93;99678.03;10282937;28;20031;-69
2023/08/29 15:11:45;;;;;;;0.73;0.10;;;;;;;22.83;47.17;99684.06;10283150;28;20122;-69
2023/08/29 15:16:48;;;;;;;1.65;0.30;;;;;;;22.73;47.21;99690.38;10283782;28;20082;-68
2023/08/29 15:21:50;;;;;;;1.02;0.20;;;;;;;22.56;47.63;99693.38;10280442;28;20367;-68
2023/08/29 15:26:52;;;;;;;0.28;0.20;;;;;;;22.36;48.16;99686.75;10282196;28;20110;-69
2023/08/29 15:31:53;;;;;;;1.35;0.10;;;;;;;22.17;47.87;99694.59;10279984;28;20066;-69
2023/08/29 15:36:55;;;;;;;1.55;0.28;;;;;;;21.83;48.00;99705.16;10286382;28;20122;-68
2023/08/29 15:42:00;;;;;;;0.35;0.10;;;;;;;21.62;47.97;99706.13;10288573;28;20114;-68
2023/08/29 15:47:02;;;;;;;1.30;0.20;;;;;;;21.65;47.92;99695.50;10289009;28;20054;-68
2023/08/29 15:52:04;;;;;;;2.03;0.20;;;;;;;21.55;48.47;99696.25;10286166;28;20727;-68
2023/08/29 15:57:05;;;;;;;0.40;0.20;;;;;;;21.50;48.44;99696.22;10288402;28;20306;-69
2023/08/29 16:02:06;;;;;;;0.32;0.20;;;;;;;21.45;49.19;99698.13;10292960;28;20421;-68
2023/08/29 16:07:08;;;;;;;0.60;0.30;;;;;;;21.31;49.28;99692.25;10291088;28;20043;-69
2023/08/29 16:12:10;;;;;;;0.40;0.20;;;;;;;21.10;49.86;99699.47;10286407;28;20267;-68
2023/08/29 16:17:11;;;;;;;0.30;0.20;;;;;;;21.10;49.68;99697.56;10297494;28;20567;-69
2023/08/29 16:22:13;;;;;;;0.70;0.10;;;;;;;20.97;49.65;99698.00;10283950;28;20122;-69
2023/08/29 16:27:14;;;;;;;0.30;0.20;;;;;;;21.04;49.88;99693.16;10286266;28;20047;-69
2023/08/29 16:32:17;;;;;;;1.17;0.30;;;;;;;21.12;49.50;99698.13;10282443;28;20054;-68
2023/08/29 16:37:18;;;;;;;0.20;0.13;;;;;;;21.09;49.48;99689.63;10287486;28;20365;-68
2023/08/29 16:42:20;;;;;;;0.40;0.20;;;;;;;21.01;49.75;99690.94;10283044;28;20078;-70
2023/08/29 16:47:21;;;;;;;1.40;0.30;;;;;;;21.15;49.88;99705.00;10290894;28;20027;-69
2023/08/29 16:52:23;;;;;;;1.40;0.13;;;;;;;21.25;49.65;99704.22;10282422;28;20059;-70
2023/08/29 16:57:24;;;;;;;1.13;0.30;;;;;;;21.33;50.02;99710.03;10299858;28;20110;-68
2023/08/29 17:02:26;;;;;;;0.82;0.30;;;;;;;21.38;49.54;99703.78;10288659;28;20054;-68
2023/08/29 17:07:28;;;;;;;0.88;0.40;;;;;;;21.35;49.56;99696.13;10287489;28;20378;-68
2023/08/29 17:12:29;;;;;;;0.80;0.30;;;;;;;21.37;49.27;99697.50;10288852;28;20047;-68
2023/08/29 17:17:31;;;;;;;1.40;0.28;;;;;;;21.30;49.89;99707.00;10284528;28;20093;-69
2023/08/29 17:22:33;;;;;;;0.52;0.30;;;;;;;21.25;50.27;99706.94;10286243;28;20101;-67
2023/08/29 17:27:34;;;;;;;1.90;0.77;;;;;;;21.12;50.07;99716.44;10287206;28;20343;-67
2023/08/29 17:32:35;;;;;;;3.90;3.10;;;;;;;20.62;51.68;99712.16;10291810;28;20053;-69
2023/08/29 17:37:40;;;;;;;1.35;0.30;;;;;;;20.40;52.31;99719.31;10279693;28;20035;-68
2023/08/29 17:42:42;;;;;;;0.85;0.30;;;;;;;20.41;52.19;99723.66;10284014;28;20042;-68
2023/08/29 17:47:44;;;;;;;1.70;0.30;;;;;;;20.57;51.63;99718.38;10289397;28;20102;-68
2023/08/29 17:52:45;;;;;;;1.98;0.43;;;;;;;20.71;51.62;99721.53;10286616;28;20055;-68
2023/08/29 17:57:49;;;;;;;2.25;0.50;;;;;;;20.80;51.65;99714.53;10292572;28;20062;-70
2023/08/29 18:02:53;;;;;;;2.22;0.40;;;;;;;20.80;51.86;99720.81;10278423;28;20054;-69
2023/08/29 18:07:54;;;;;;;0.70;0.40;;;;;;;20.73;51.94;99722.91;10284758;28;20051;-68
2023/08/29 18:12:56;;;;;;;1.20;0.40;;;;;;;20.75;52.05;99722.66;10285811;28;20105;-68
2023/08/29 18:17:58;;;;;;;1.33;0.20;;;;;;;20.73;52.61;99720.19;10285696;28;20050;-68
2023/08/29 18:22:59;;;;;;;1.23;0.30;;;;;;;20.70;52.67;99722.63;10282581;28;20725;-68
2023/08/29 18:28:01;;;;;;;0.50;0.30;;;;;;;20.62;52.72;99717.63;10299573;28;20077;-67
2023/08/29 18:33:07;;;;;;;0.65;0.40;;;;;;;20.54;53.30;99727.09;10281307;28;20054;-68
2023/08/29 18:38:08;;;;;;;2.28;0.73;;;;;;;20.48;53.40;99722.63;10293217;28;20055;-68
2023/08/29 18:43:12;;;;;;;0.75;0.30;;;;;;;20.35;53.44;99734.78;10276984;28;20055;-69
2023/08/29 18:48:14;;;;;;;0.80;0.40;;;;;;;20.23;53.96;99743.13;10286112;28;20110;-68
2023/08/29 18:53:16;;;;;;;0.65;0.50;;;;;;;20.19;53.57;99752.91;10283202;28;20046;-68
2023/08/29 18:58:17;;;;;;;1.20;0.40;;;;;;;20.13;53.78;99754.72;10281578;28;20504;-68
2023/08/29 19:03:18;;;;;;;0.40;0.30;;;;;;;20.07;53.91;99754.94;10282316;28;20063;-70
2023/08/29 19:08:21;;;;;;;0.95;0.40;;;;;;;20.00;54.82;99749.66;10285261;28;20366;-73
2023/08/29 19:13:22;;;;;;;1.08;0.40;;;;;;;19.86;55.38;99753.84;10298449;28;20042;-73
2023/08/29 19:18:24;;;;;;;0.98;0.55;;;;;;;19.75;55.44;99750.97;10297764;28;20054;-71
2023/08/29 19:23:27;;;;;;;1.45;0.50;;;;;;;19.67;56.11;99750.53;10289103;28;20283;-71
2023/08/29 19:28:29;;;;;;;3.33;0.60;;;;;;;19.55;56.39;99747.91;10281565;28;20049;-73
2023/08/29 19:33:30;;;;;;;2.58;0.50;;;;;;;19.38;57.08;99753.38;10291045;28;20118;-70
2023/08/29 19:38:32;;;;;;;1.30;0.68;;;;;;;19.21;56.88;99761.56;10291470;28;20059;-72
2023/08/29 19:43:33;;;;;;;2.63;0.60;;;;;;;19.12;56.97;99755.69;10302964;28;20246;-71
2023/08/29 19:48:35;;;;;;;2.28;0.55;;;;;;;19.06;57.02;99756.69;10314421;28;20067;-72
2023/08/29 19:53:36;;;;;;;3.08;0.63;;;;;;;18.93;57.75;99757.00;10303127;28;20508;-72
2023/08/29 19:58:38;;;;;;;2.35;0.80;;;;;;;18.80;57.97;99761.69;10290375;28;20307;-73
2023/08/29 20:03:40;;;;;;;1.45;0.60;;;;;;;18.53;58.77;99757.88;10289921;28;20347;-71
2023/08/29 20:08:41;;;;;;;0.85;0.50;;;;;;;18.42;58.96;99754.13;10292308;28;20043;-72
2023/08/29 20:13:43;;;;;;;1.42;1.13;;;;;;;18.46;58.62;99754.47;10292461;28;20383;-72
2023/08/29 20:18:45;;;;;;;2.65;0.70;;;;;;;18.34;59.01;99749.06;10287215;28;20290;-72
2023/08/29 20:23:47;;;;;;;1.00;0.55;;;;;;;18.22;59.37;99755.38;10287965;28;20363;-73
2023/08/29 20:29:03;;;;;;;10.98;4.85;;;;;;;18.18;59.45;99754.19;10286616;28;20042;-73
2023/08/29 20:34:04;;;;;;;2.40;1.40;;;;;;;18.14;59.48;99746.78;10290247;28;20074;-75
2023/08/29 20:39:06;;;;;;;2.60;1.00;;;;;;;18.16;59.33;99748.16;10287248;28;20058;-70
2023/08/29 20:44:08;;;;;;;1.45;0.77;;;;;;;18.12;59.55;99741.56;10291681;28;20053;-73
2023/08/29 20:49:10;;;;;;;1.67;0.88;;;;;;;18.11;59.63;99739.06;10294568;28;20351;-72
2023/08/29 20:54:12;;;;;;;4.30;1.08;;;;;;;17.98;59.96;99737.47;10283818;28;20117;-72
2023/08/29 20:59:13;;;;;;;2.45;1.60;;;;;;;17.89;60.19;99731.59;10288500;28;20047;-71
2023/08/29 21:04:15;;;;;;;3.22;0.93;;;;;;;17.83;60.58;99736.09;10302116;28;20111;-71
2023/08/29 21:09:16;;;;;;;3.90;1.00;;;;;;;17.76;60.67;99739.97;10301030;28;20058;-72
2023/08/29 21:14:18;;;;;;;2.53;0.88;;;;;;;17.69;61.06;99731.09;10282045;28;20066;-75
2023/08/29 21:19:19;;;;;;;2.35;0.90;;;;;;;17.59;61.37;99718.91;10281316;28;20050;-71
2023/08/29 21:24:21;;;;;;;0.98;0.70;;;;;;;17.37;62.00;99717.88;10286293;28;20115;-72
2023/08/29 21:29:22;;;;;;;3.40;0.70;;;;;;;17.25;62.26;99723.31;10284533;28;20110;-72
2023/08/29 21:34:24;;;;;;;4.10;1.60;;;;;;;17.15;62.42;99713.03;10282840;28;20070;-76
2023/08/29 21:39:26;;;;;;;4.18;0.80;;;;;;;17.04;62.22;99714.69;10283054;28;20401;-74
2023/08/29 21:44:27;;;;;;;1.20;0.70;;;;;;;16.88;62.65;99717.25;10288240;28;20121;-74
2023/08/29 21:49:30;;;;;;;1.27;0.65;;;;;;;16.88;62.77;99698.22;10286228;28;20156;-70
2023/08/29 21:54:31;;;;;;;0.90;0.60;;;;;;;16.84;62.73;99701.44;10288074;28;20046;-72
2023/08/29 21:59:33;;;;;;;1.42;0.60;;;;;;;16.79;62.83;99690.41;10283638;28;20077;-76
2023/08/29 22:04:34;;;;;;;2.25;0.70;;;;;;;16.75;62.87;99688.41;10281947;28;20328;-72
2023/08/29 22:09:36;;;;;;;1.10;0.60;;;;;;;16.66;63.20;99682.47;10279476;28;20388;-75
2023/08/29 22:14:37;;;;;;;1.20;0.63;;;;;;;16.58;63.22;99683.63;10285471;28;20043;-72
2023/08/29 22:19:38;;;;;;;3.97;0.60;;;;;;;16.43;63.57;99678.63;10285268;28;20054;-73
2023/08/29 22:24:40;;;;;;;2.10;0.70;;;;;;;16.33;63.58;99672.94;10284517;28;20127;-72
2023/08/29 22:29:41;;;;;;;1.65;0.50;;;;;;;16.23;63.74;99680.78;10282351;28;20145;-72
2023/08/29 22:34:44;;;;;;;0.95;0.60;;;;;;;16.20;63.82;99673.13;10281136;28;20070;-72
2023/08/29 22:39:49;;;;;;;1.50;0.70;;;;;;;16.02;64.08;99672.09;10282064;28;20058;-72
2023/08/29 22:44:50;;;;;;;1.50;0.88;;;;;;;15.89;64.61;99669.56;10283261;28;20063;-72
2023/08/29 22:49:52;;;;;;;2.25;0.77;;;;;;;15.90;64.50;99663.09;10285881;28;20086;-72
2023/08/29 22:54:53;;;;;;;1.30;0.80;;;;;;;15.77;64.70;99665.97;10284091;28;20109;-72
2023/08/29 22:59:55;;;;;;;1.40;0.60;;;;;;;15.79;64.59;99666.56;10284052;28;20131;-72
2023/08/29 23:04:57;;;;;;;0.95;0.75;;;;;;;15.75;64.81;99670.78;10283657;28;20067;-72
2023/08/29 23:09:59;;;;;;;3.88;1.00;;;;;;;15.75;64.70;99673.47;10282383;28;20431;-75
2023/08/29 23:15:00;;;;;;;1.38;0.75;;;;;;;15.74;64.69;99672.66;10281182;28;20051;-73
2023/08/29 23:20:07;;;;;;;1.23;0.90;;;;;;;15.53;65.40;99668.47;10281146;28;20049;-71
2023/08/29 23:25:10;;;;;;;1.00;0.70;;;;;;;15.55;65.03;99671.78;10298427;28;20055;-73